createdAt,value
2017-11-15T00:02:05.683Z,19.43
2017-11-15T00:04:40.094Z,19.90
2017-11-15T00:07:14.528Z,17.00
2017-11-15T00:09:49.057Z,18.10
2017-11-15T00:12:23.491Z,19.07
2017-11-15T00:14:58.157Z,18.80
2017-11-15T00:17:32.615Z,18.90
2017-11-15T00:20:14.829Z,19.77
2017-11-15T00:22:49.567Z,18.27
2017-11-15T00:25:23.986Z,19.77
2017-11-15T00:27:58.487Z,18.73
2017-11-15T00:30:32.921Z,19.57
2017-11-15T00:33:07.218Z,18.20
2017-11-15T00:35:42.055Z,19.67
2017-11-15T00:38:16.471Z,19.13
2017-11-15T00:40:50.974Z,20.20
2017-11-15T00:43:25.463Z,19.40
2017-11-15T00:45:59.912Z,19.27
2017-11-15T00:48:34.419Z,18.20
2017-11-15T00:51:08.803Z,20.40
2017-11-15T00:53:43.385Z,18.00
2017-11-15T00:56:17.813Z,19.43
2017-11-15T00:58:52.111Z,17.57
2017-11-15T01:01:26.618Z,18.40
2017-11-15T01:04:01.180Z,19.33
2017-11-15T01:06:35.936Z,18.80
2017-11-15T01:09:10.479Z,16.97
2017-11-15T01:11:44.910Z,18.53
2017-11-15T01:14:19.540Z,19.43
2017-11-15T01:16:54.159Z,20.07
2017-11-15T01:19:28.555Z,20.50
2017-11-15T01:22:02.934Z,17.03
2017-11-15T01:24:37.734Z,16.20
2017-11-15T01:27:12.153Z,17.23
2017-11-15T01:29:46.594Z,18.53
2017-11-15T01:32:20.955Z,16.20
2017-11-15T01:34:55.410Z,16.83
2017-11-15T01:37:29.829Z,17.87
2017-11-15T01:40:04.159Z,17.50
2017-11-15T01:42:38.878Z,16.97
2017-11-15T01:45:15.533Z,16.90
2017-11-15T01:47:49.701Z,16.90
2017-11-15T01:50:24.176Z,16.63
2017-11-15T01:52:58.609Z,18.43
2017-11-15T01:55:32.991Z,18.43
2017-11-15T01:58:07.487Z,18.37
2017-11-15T02:00:53.134Z,18.33
2017-11-15T02:03:27.808Z,18.30
2017-11-15T02:06:02.489Z,18.60
2017-11-15T02:08:37.144Z,17.00
2017-11-15T02:11:11.617Z,16.93
2017-11-15T02:13:46.157Z,18.67
2017-11-15T02:16:20.649Z,17.50
2017-11-15T02:18:54.971Z,17.40
2017-11-15T02:21:29.543Z,17.60
2017-11-15T02:24:03.827Z,17.13
2017-11-15T02:29:36.495Z,17.57
2017-11-15T02:32:10.526Z,17.67
2017-11-15T02:34:44.859Z,19.90
2017-11-15T02:37:19.293Z,17.40
2017-11-15T02:39:53.390Z,18.83
2017-11-15T02:42:27.451Z,18.00
2017-11-15T02:45:01.667Z,17.80
2017-11-15T02:47:36.502Z,17.33
2017-11-15T02:50:15.391Z,16.13
2017-11-15T02:52:49.586Z,17.27
2017-11-15T02:55:24.212Z,16.10
2017-11-15T02:57:58.767Z,17.00
2017-11-15T03:00:32.870Z,15.47
2017-11-15T03:03:07.375Z,17.63
2017-11-15T03:05:41.470Z,17.90
2017-11-15T03:08:15.827Z,19.73
2017-11-15T03:10:51.021Z,19.00
2017-11-15T03:13:25.817Z,18.13
2017-11-15T03:16:00.182Z,17.17
2017-11-15T03:18:34.600Z,19.10
2017-11-15T03:21:14.313Z,18.33
2017-11-15T03:23:48.861Z,18.60
2017-11-15T03:26:22.993Z,20.20
2017-11-15T03:28:57.403Z,18.33
2017-11-15T03:31:31.769Z,17.63
2017-11-15T03:34:06.919Z,18.07
2017-11-15T03:36:41.537Z,16.70
2017-11-15T03:39:16.304Z,18.80
2017-11-15T03:41:50.697Z,18.40
2017-11-15T03:44:25.062Z,17.60
2017-11-15T03:46:59.470Z,17.80
2017-11-15T03:49:34.008Z,18.93
2017-11-15T03:52:08.384Z,19.00
2017-11-15T03:54:42.755Z,16.50
2017-11-15T03:57:17.232Z,17.27
2017-11-15T03:59:51.903Z,17.43
2017-11-15T04:02:26.286Z,20.57
2017-11-15T04:05:00.804Z,19.30
2017-11-15T04:07:35.509Z,19.40
2017-11-15T04:10:14.983Z,19.63
2017-11-15T04:12:49.493Z,18.70
2017-11-15T04:15:24.052Z,19.70
2017-11-15T04:17:58.679Z,22.33
2017-11-15T04:20:33.127Z,19.80
2017-11-15T04:23:07.518Z,19.40
2017-11-15T04:25:42.147Z,21.70
2017-11-15T04:28:16.566Z,20.50
2017-11-15T04:30:51.106Z,19.70
2017-11-15T04:33:25.571Z,20.33
2017-11-15T04:36:00.223Z,19.83
2017-11-15T04:38:34.723Z,20.73
2017-11-15T04:41:10.216Z,19.20
2017-11-15T04:43:44.727Z,19.07
2017-11-15T04:46:19.211Z,20.07
2017-11-15T04:48:53.913Z,20.80
2017-11-15T04:51:28.387Z,19.20
2017-11-15T04:54:02.811Z,20.13
2017-11-15T04:56:37.234Z,19.37
2017-11-15T04:59:11.397Z,20.50
2017-11-15T05:01:45.878Z,19.57
2017-11-15T05:04:20.403Z,18.30
2017-11-15T05:06:54.771Z,20.30
2017-11-15T05:09:29.259Z,16.57
2017-11-15T05:12:03.731Z,20.60
2017-11-15T05:14:38.267Z,18.53
2017-11-15T05:17:12.739Z,20.53
2017-11-15T05:19:47.261Z,18.73
2017-11-15T05:22:21.843Z,19.20
2017-11-15T05:24:56.298Z,18.50
2017-11-15T05:27:31.126Z,18.80
2017-11-15T05:30:15.048Z,18.13
2017-11-15T05:32:50.535Z,18.50
2017-11-15T05:35:25.021Z,19.83
2017-11-15T05:37:59.555Z,18.13
2017-11-15T05:40:34.181Z,16.80
2017-11-15T05:43:08.535Z,17.40
2017-11-15T05:45:42.972Z,17.00
2017-11-15T05:48:17.151Z,17.40
2017-11-15T05:50:51.551Z,17.20
2017-11-15T05:53:25.907Z,18.90
2017-11-15T05:56:00.419Z,18.80
2017-11-15T05:58:34.892Z,17.83
2017-11-15T06:01:09.359Z,19.00
2017-11-15T06:03:43.957Z,18.80
2017-11-15T06:06:18.338Z,18.73
2017-11-15T06:08:52.945Z,18.23
2017-11-15T06:11:27.398Z,20.97
2017-11-15T06:14:02.010Z,19.73
2017-11-15T06:16:37.800Z,18.73
2017-11-15T06:19:13.650Z,19.50
2017-11-15T06:21:49.029Z,20.07
2017-11-15T06:24:23.785Z,20.27
2017-11-15T06:26:58.562Z,21.03
2017-11-15T06:29:33.176Z,19.30
2017-11-15T06:32:07.836Z,20.57
2017-11-15T06:34:43.080Z,18.70
2017-11-15T06:37:17.760Z,20.50
2017-11-15T06:39:52.545Z,18.00
2017-11-15T06:42:27.284Z,19.47
2017-11-15T06:45:01.860Z,19.37
2017-11-15T06:47:38.536Z,20.50
2017-11-15T06:50:16.138Z,19.83
2017-11-15T06:52:50.694Z,16.80
2017-11-15T06:55:25.099Z,19.97
2017-11-15T06:58:00.317Z,16.20
2017-11-15T07:00:34.720Z,15.80
2017-11-15T07:03:09.076Z,18.37
2017-11-15T07:05:43.545Z,18.90
2017-11-15T07:08:18.265Z,19.00
2017-11-15T07:10:52.651Z,16.00
2017-11-15T07:13:27.269Z,17.00
2017-11-15T07:16:02.077Z,16.27
2017-11-15T07:18:36.740Z,19.40
2017-11-15T07:21:11.315Z,19.03
2017-11-15T07:23:45.892Z,17.77
2017-11-15T07:26:20.368Z,17.43
2017-11-15T07:28:54.731Z,16.43
2017-11-15T07:31:29.126Z,17.37
2017-11-15T07:34:03.662Z,16.57
2017-11-15T07:36:38.075Z,16.50
2017-11-15T07:39:12.496Z,17.50
2017-11-15T07:41:46.956Z,17.33
2017-11-15T07:44:21.504Z,17.70
2017-11-15T07:46:55.927Z,16.53
2017-11-15T07:49:30.559Z,18.87
2017-11-15T07:52:05.898Z,18.00
2017-11-15T07:54:40.470Z,16.60
2017-11-15T07:57:14.564Z,17.03
2017-11-15T07:59:49.039Z,17.80
2017-11-15T08:02:23.507Z,16.87
2017-11-15T08:04:58.118Z,18.23
2017-11-15T08:07:32.469Z,17.90
2017-11-15T08:10:06.966Z,19.73
2017-11-15T08:12:41.490Z,17.77
2017-11-15T08:15:15.875Z,17.40
2017-11-15T08:17:50.396Z,17.27
2017-11-15T08:20:24.736Z,17.40
2017-11-15T08:22:59.295Z,17.97
2017-11-15T08:25:33.752Z,18.53
2017-11-15T08:28:08.914Z,19.83
2017-11-15T08:30:43.478Z,17.60
2017-11-15T08:33:18.200Z,18.53
2017-11-15T08:35:52.731Z,16.60
2017-11-15T08:38:28.044Z,15.93
2017-11-15T08:41:02.608Z,16.37
2017-11-15T08:43:37.101Z,17.87
2017-11-15T08:46:11.548Z,17.33
2017-11-15T08:48:46.051Z,17.27
2017-11-15T08:51:20.504Z,17.47
2017-11-15T08:53:55.878Z,14.77
2017-11-15T08:56:30.368Z,13.37
2017-11-15T08:59:04.912Z,13.50
2017-11-15T09:01:39.695Z,15.10
2017-11-15T09:04:14.208Z,13.97
2017-11-15T09:06:49.233Z,14.43
2017-11-15T09:09:24.023Z,13.17
2017-11-15T09:11:58.544Z,11.50
2017-11-15T09:14:33.099Z,12.00
2017-11-15T09:17:07.583Z,10.70
2017-11-15T09:19:42.009Z,10.80
2017-11-15T09:22:16.463Z,11.20
2017-11-15T09:24:51.017Z,9.73
2017-11-15T09:27:25.809Z,12.10
2017-11-15T09:30:02.835Z,10.73
2017-11-15T09:32:37.212Z,10.87
2017-11-15T09:35:11.578Z,9.90
2017-11-15T09:37:46.180Z,10.97
2017-11-15T09:40:20.548Z,13.20
2017-11-15T09:42:55.830Z,10.57
2017-11-15T09:45:30.397Z,11.80
2017-11-15T09:48:04.975Z,10.00
2017-11-15T09:50:39.309Z,10.57
2017-11-15T09:53:13.825Z,11.40
2017-11-15T09:55:48.340Z,9.80
2017-11-15T09:58:22.871Z,10.57
2017-11-15T10:00:57.284Z,11.90
2017-11-15T10:03:31.832Z,11.63
2017-11-15T10:06:06.324Z,11.10
2017-11-15T10:08:41.701Z,10.57
2017-11-15T10:11:15.921Z,10.23
2017-11-15T10:13:50.476Z,10.70
2017-11-15T10:16:24.929Z,10.93
2017-11-15T10:18:59.561Z,10.90
2017-11-15T10:21:34.607Z,10.50
2017-11-15T10:24:09.966Z,10.43
2017-11-15T10:26:44.489Z,10.80
2017-11-15T10:29:18.855Z,9.40
2017-11-15T10:31:53.378Z,11.17
2017-11-15T10:34:27.931Z,10.40
2017-11-15T10:37:03.264Z,10.40
2017-11-15T10:39:37.788Z,10.27
2017-11-15T10:42:12.212Z,11.40
2017-11-15T10:44:46.715Z,10.40
2017-11-15T10:47:21.582Z,10.33
2017-11-15T10:49:55.967Z,9.50
2017-11-15T10:52:30.444Z,10.40
2017-11-15T10:55:05.938Z,11.37
2017-11-15T10:57:40.522Z,10.60
2017-11-15T11:00:14.813Z,10.47
2017-11-15T11:02:49.321Z,10.37
2017-11-15T11:05:25.833Z,9.60
2017-11-15T11:08:00.200Z,8.87
2017-11-15T11:10:34.680Z,10.90
2017-11-15T11:13:09.322Z,8.73
2017-11-15T11:15:43.815Z,9.90
2017-11-15T11:18:18.323Z,9.73
2017-11-15T11:20:52.696Z,8.97
2017-11-15T11:23:27.288Z,9.60
2017-11-15T11:26:01.756Z,9.77
2017-11-15T11:28:36.176Z,9.17
2017-11-15T11:31:10.663Z,10.13
2017-11-15T11:33:44.949Z,10.00
2017-11-15T11:36:19.348Z,9.30
2017-11-15T11:38:53.916Z,8.63
2017-11-15T11:41:28.439Z,9.23
2017-11-15T11:44:02.247Z,9.37
2017-11-15T11:46:37.017Z,9.17
2017-11-15T11:49:11.584Z,9.87
2017-11-15T11:51:46.063Z,9.20
2017-11-15T11:54:20.388Z,9.30
2017-11-15T11:56:54.892Z,10.07
2017-11-15T11:59:29.347Z,9.03
2017-11-15T12:02:04.613Z,8.77
2017-11-15T12:04:39.221Z,9.33
2017-11-15T12:07:13.810Z,8.97
2017-11-15T12:09:48.207Z,9.20
2017-11-15T12:12:22.692Z,8.93
2017-11-15T12:14:57.097Z,8.77
2017-11-15T12:17:31.492Z,8.73
2017-11-15T12:20:14.407Z,8.63
2017-11-15T12:22:48.784Z,8.67
2017-11-15T12:25:23.208Z,10.80
2017-11-15T12:27:57.759Z,9.40
2017-11-15T12:30:32.208Z,9.63
2017-11-15T12:33:06.794Z,10.97
2017-11-15T12:35:42.066Z,11.20
2017-11-15T12:38:16.608Z,10.23
2017-11-15T12:40:51.037Z,10.70
2017-11-15T12:43:25.528Z,8.47
2017-11-15T12:46:00.044Z,7.90
2017-11-15T12:48:34.531Z,8.13
2017-11-15T12:51:08.904Z,8.70
2017-11-15T12:53:43.283Z,9.60
2017-11-15T12:56:17.390Z,8.40
2017-11-15T12:58:52.260Z,7.77
2017-11-15T13:01:26.683Z,7.23
2017-11-15T13:04:01.331Z,7.70
2017-11-15T13:06:35.703Z,8.70
2017-11-15T13:09:10.254Z,8.40
2017-11-15T13:11:44.711Z,8.07
2017-11-15T13:14:19.259Z,7.63
2017-11-15T13:16:53.446Z,7.10
2017-11-15T13:19:29.016Z,8.03
2017-11-15T13:22:03.570Z,9.43
2017-11-15T13:24:37.861Z,7.77
2017-11-15T13:27:12.320Z,7.10
2017-11-15T13:29:46.871Z,7.50
2017-11-15T13:32:21.455Z,7.73
2017-11-15T13:34:56.085Z,6.63
2017-11-15T13:37:31.392Z,7.33
2017-11-15T13:40:14.926Z,7.07
2017-11-15T13:42:49.457Z,7.97
2017-11-15T13:45:23.916Z,6.90
2017-11-15T13:47:58.382Z,6.40
2017-11-15T13:50:33.871Z,7.30
2017-11-15T13:53:08.367Z,5.30
2017-11-15T13:55:42.744Z,4.77
2017-11-15T13:58:17.168Z,5.43
2017-11-15T14:00:51.639Z,4.30
2017-11-15T14:03:26.083Z,4.90
2017-11-15T14:06:00.792Z,5.33
2017-11-15T14:08:35.467Z,5.07
2017-11-15T14:11:09.936Z,5.30
2017-11-15T14:13:44.374Z,5.17
2017-11-15T14:16:18.754Z,5.40
2017-11-15T14:18:53.915Z,5.80
2017-11-15T14:21:28.496Z,5.33
2017-11-15T14:24:02.980Z,6.30
2017-11-15T14:26:37.489Z,5.90
2017-11-15T14:29:17.849Z,6.90
2017-11-15T14:31:52.396Z,6.30
2017-11-15T14:34:27.011Z,5.30
2017-11-15T14:37:02.036Z,5.03
2017-11-15T14:39:36.553Z,5.60
2017-11-15T14:42:10.947Z,6.30
2017-11-15T14:44:45.276Z,5.33
2017-11-15T14:47:19.707Z,5.60
2017-11-15T14:49:54.937Z,5.63
2017-11-15T14:52:29.597Z,6.23
2017-11-15T14:57:45.512Z,6.00
2017-11-15T15:00:19.919Z,6.30
2017-11-15T15:02:54.464Z,6.47
2017-11-15T15:05:28.920Z,6.07
2017-11-15T15:08:04.598Z,6.73
2017-11-15T15:10:39.078Z,5.93
2017-11-15T15:13:13.642Z,7.40
2017-11-15T15:15:48.058Z,5.60
2017-11-15T15:18:22.598Z,7.00
2017-11-15T15:20:56.981Z,7.43
2017-11-15T15:23:31.500Z,7.67
2017-11-15T15:26:08.329Z,7.03
2017-11-15T15:28:45.207Z,7.47
2017-11-15T15:31:19.860Z,7.87
2017-11-15T15:33:54.605Z,7.30
2017-11-15T15:36:29.067Z,7.20
2017-11-15T15:39:03.599Z,7.47
2017-11-15T15:41:37.995Z,7.93
2017-11-15T15:44:12.505Z,7.70
2017-11-15T15:46:47.371Z,8.70
2017-11-15T15:49:21.905Z,8.40
2017-11-15T15:51:56.632Z,8.13
2017-11-15T15:54:31.108Z,8.00
2017-11-15T15:57:05.574Z,9.13
2017-11-15T15:59:40.072Z,9.17
2017-11-15T16:02:14.632Z,9.60
2017-11-15T16:04:49.242Z,9.80
2017-11-15T16:07:24.027Z,9.90
2017-11-15T16:09:58.426Z,9.70
2017-11-15T16:12:33.247Z,10.47
2017-11-15T16:15:13.559Z,11.40
2017-11-15T16:17:48.069Z,10.53
2017-11-15T16:20:22.514Z,11.20
2017-11-15T16:22:57.614Z,9.80
2017-11-15T16:25:32.102Z,10.57
2017-11-15T16:28:06.652Z,10.37
2017-11-15T16:30:41.073Z,11.80
2017-11-15T16:33:15.567Z,10.53
2017-11-15T16:35:50.044Z,11.67
2017-11-15T16:38:24.436Z,10.73
2017-11-15T16:40:58.931Z,11.70
2017-11-15T16:43:33.413Z,12.83
2017-11-15T16:46:07.820Z,13.13
2017-11-15T16:48:42.354Z,12.60
2017-11-15T16:51:18.446Z,12.13
2017-11-15T16:53:53.768Z,12.53
2017-11-15T16:56:28.254Z,11.57
2017-11-15T16:59:02.731Z,11.10
2017-11-15T17:01:37.180Z,12.40
2017-11-15T17:04:11.575Z,11.47
2017-11-15T17:06:45.924Z,12.37
2017-11-15T17:09:20.498Z,11.07
2017-11-15T17:11:54.976Z,11.00
2017-11-15T17:14:29.491Z,10.10
2017-11-15T17:17:03.879Z,10.10
2017-11-15T17:19:38.471Z,11.57
2017-11-15T17:22:12.908Z,12.13
2017-11-15T17:24:47.515Z,12.03
2017-11-15T17:27:21.932Z,11.80
2017-11-15T17:29:56.414Z,11.03
2017-11-15T17:32:30.798Z,11.47
2017-11-15T17:35:16.314Z,11.40
2017-11-15T17:37:50.803Z,13.10
2017-11-15T17:40:25.245Z,12.60
2017-11-15T17:42:59.811Z,10.60
2017-11-15T17:45:33.855Z,9.80
2017-11-15T17:48:08.026Z,10.07
2017-11-15T17:50:42.220Z,9.80
2017-11-15T17:53:16.657Z,11.27
2017-11-15T17:55:51.146Z,10.27
2017-11-15T17:58:25.592Z,9.80
2017-11-15T18:00:59.814Z,11.43
2017-11-15T18:03:34.379Z,13.40
2017-11-15T18:06:08.794Z,15.13
2017-11-15T18:08:43.370Z,13.37
2017-11-15T18:11:18.800Z,11.70
2017-11-15T18:13:53.403Z,12.33
2017-11-15T18:16:28.018Z,12.13
2017-11-15T18:19:02.575Z,11.90
2017-11-15T18:21:37.024Z,13.93
2017-11-15T18:24:11.464Z,17.33
2017-11-15T18:26:45.865Z,15.10
2017-11-15T18:29:20.549Z,14.27
2017-11-15T18:31:55.113Z,15.47
2017-11-15T18:34:29.609Z,13.00
2017-11-15T18:37:03.998Z,15.03
2017-11-15T18:39:38.543Z,17.17
2017-11-15T18:42:12.895Z,15.07
2017-11-15T18:44:47.138Z,14.93
2017-11-15T18:47:21.551Z,13.63
2017-11-15T18:49:56.081Z,13.00
2017-11-15T18:52:30.443Z,13.33
2017-11-15T18:55:14.055Z,13.27
2017-11-15T18:57:48.558Z,18.50
2017-11-15T19:00:23.311Z,16.67
2017-11-15T19:02:57.679Z,17.90
2017-11-15T19:05:32.267Z,15.80
2017-11-15T19:08:06.666Z,21.97
2017-11-15T19:10:41.107Z,17.90
2017-11-15T19:13:15.563Z,19.50
2017-11-15T19:15:50.009Z,17.27
2017-11-15T19:18:24.799Z,14.93
2017-11-15T19:20:59.831Z,16.60
2017-11-15T19:23:34.210Z,16.43
2017-11-15T19:26:08.615Z,16.43
2017-11-15T19:28:43.047Z,16.43
2017-11-15T19:31:17.484Z,15.33
2017-11-15T19:33:52.057Z,16.57
2017-11-15T19:36:27.144Z,15.90
2017-11-15T19:39:01.571Z,16.20
2017-11-15T19:41:36.437Z,17.60
2017-11-15T19:44:11.357Z,15.67
2017-11-15T19:46:45.797Z,16.20
2017-11-15T19:49:20.203Z,21.60
2017-11-15T19:51:54.611Z,67.47
2017-11-15T19:54:29.852Z,17.17
2017-11-15T19:57:04.351Z,63.57
2017-11-15T19:59:38.863Z,23.47
2017-11-15T20:02:13.968Z,16.80
2017-11-15T20:04:48.332Z,19.03
2017-11-15T20:07:22.734Z,16.97
2017-11-15T20:09:57.138Z,18.23
2017-11-15T20:12:31.668Z,16.33
2017-11-15T20:15:14.338Z,14.47
2017-11-15T20:17:48.823Z,15.13
2017-11-15T20:20:23.290Z,16.90
2017-11-15T20:22:57.842Z,14.80
2017-11-15T20:25:32.270Z,17.20
2017-11-15T20:28:06.690Z,17.50
2017-11-15T20:30:41.141Z,16.10
2017-11-15T20:33:16.506Z,17.40
2017-11-15T20:35:50.944Z,16.87
2017-11-15T20:38:25.432Z,15.53
2017-11-15T20:41:00.430Z,15.00
2017-11-15T20:43:35.949Z,20.17
2017-11-15T20:46:11.492Z,15.60
2017-11-15T20:48:45.852Z,16.37
2017-11-15T20:51:20.289Z,15.27
2017-11-15T20:53:54.815Z,16.83
2017-11-15T20:56:29.251Z,18.97
2017-11-15T20:59:03.824Z,17.67
2017-11-15T21:01:38.261Z,18.33
2017-11-15T21:04:12.135Z,17.23
2017-11-15T21:06:46.499Z,16.27
2017-11-15T21:09:21.006Z,17.53
2017-11-15T21:11:55.433Z,21.80
2017-11-15T21:14:29.844Z,17.33
2017-11-15T21:17:04.264Z,18.87
2017-11-15T21:19:39.188Z,16.87
2017-11-15T21:22:13.647Z,16.50
2017-11-15T21:24:48.032Z,15.83
2017-11-15T21:27:24.114Z,13.53
2017-11-15T21:29:58.623Z,14.80
2017-11-15T21:32:33.659Z,14.00
2017-11-15T21:35:13.847Z,14.80
2017-11-15T21:37:48.263Z,15.20
2017-11-15T21:40:22.896Z,14.83
2017-11-15T21:42:57.484Z,14.33
2017-11-15T21:45:31.864Z,13.97
2017-11-15T21:48:06.297Z,14.73
2017-11-15T21:50:41.131Z,12.57
2017-11-15T21:53:15.656Z,15.80
2017-11-15T21:55:50.036Z,15.03
2017-11-15T21:58:24.550Z,17.40
2017-11-15T22:00:59.449Z,13.03
2017-11-15T22:03:33.878Z,13.33
2017-11-15T22:06:09.998Z,15.77
2017-11-15T22:08:44.556Z,14.70
2017-11-15T22:11:19.835Z,31.47
2017-11-15T22:13:54.392Z,15.00
2017-11-15T22:16:28.782Z,15.50
2017-11-15T22:19:03.299Z,15.87
2017-11-15T22:21:37.739Z,16.20
2017-11-15T22:24:12.003Z,15.70
2017-11-15T22:26:46.389Z,19.50
2017-11-15T22:29:20.805Z,16.90
2017-11-15T22:31:55.576Z,18.50
2017-11-15T22:34:30.103Z,17.83
2017-11-15T22:37:05.068Z,13.80
2017-11-15T22:39:39.647Z,15.70
2017-11-15T22:42:14.033Z,15.33
2017-11-15T22:44:49.303Z,17.13
2017-11-15T22:47:24.511Z,15.77
2017-11-15T22:49:58.965Z,12.57
2017-11-15T22:52:33.368Z,14.60
2017-11-15T22:55:14.165Z,13.83
2017-11-15T22:57:48.310Z,17.80
2017-11-15T23:00:23.514Z,15.40
2017-11-15T23:02:58.156Z,17.47
2017-11-15T23:05:32.628Z,19.30
2017-11-15T23:08:07.123Z,15.13
2017-11-15T23:10:41.571Z,16.83
2017-11-15T23:13:16.738Z,14.27
2017-11-15T23:15:51.577Z,16.50
2017-11-15T23:18:25.955Z,15.83
2017-11-15T23:21:00.455Z,15.90
2017-11-15T23:23:35.054Z,16.10
2017-11-15T23:26:09.497Z,16.10
2017-11-15T23:28:45.011Z,17.60
2017-11-15T23:31:21.004Z,15.30
2017-11-15T23:33:55.656Z,16.53
2017-11-15T23:36:30.424Z,16.10
2017-11-15T23:39:06.650Z,20.10
2017-11-15T23:41:41.096Z,14.90
2017-11-15T23:44:15.523Z,17.23
2017-11-15T23:46:51.428Z,15.60
2017-11-15T23:49:25.932Z,15.50
2017-11-15T23:52:00.783Z,16.33
2017-11-15T23:54:35.208Z,15.50
2017-11-15T23:57:09.593Z,18.27
2017-11-15T23:59:43.712Z,15.10
